Time;durP1;ratioP1;P1;durP2;ratioP2;P2;SDS_P1;SDS_P2;PMS_P1;PMS_P2;Temp;Humidity;BMP_temperature;BMP_pressure;BME280_temperature;BME280_humidity;BME280_pressure;Samples;Min_cycle;Max_cycle;Signal;HPM_P1;HPM_P2
2024/03/08 00:02:00;;;;;;;0.10;0.10;;;;;;;10.14;61.74;100801.34;7359135;19;19998;-62
2024/03/08 00:04:25;;;;;;;0.10;0.10;;;;;;;10.21;61.60;100809.06;7367446;19;20042;-62
2024/03/08 00:06:50;;;;;;;0.10;0.10;;;;;;;10.19;61.85;100809.09;7362453;19;19999;-62
2024/03/08 00:09:16;;;;;;;0.10;0.10;;;;;;;10.21;61.62;100809.06;7367960;19;20070;-62
2024/03/08 00:11:41;;;;;;;0.00;0.00;;;;;;;10.20;61.59;100812.56;7368318;19;19999;-62
2024/03/08 00:14:07;;;;;;;0.10;0.10;;;;;;;10.20;61.91;100817.78;7364407;19;20018;-62
2024/03/08 00:16:33;;;;;;;0.10;0.10;;;;;;;10.22;61.57;100815.97;7365201;19;20659;-62
2024/03/08 00:18:59;;;;;;;0.00;0.00;;;;;;;10.20;61.91;100818.63;7365903;19;19998;-62
2024/03/08 00:21:26;;;;;;;0.10;0.10;;;;;;;10.22;61.57;100815.97;7365946;19;20461;-62
2024/03/08 00:23:54;;;;;;;0.10;0.10;;;;;;;10.21;61.47;100807.31;7364816;19;20002;-62
2024/03/08 00:26:19;;;;;;;0.10;0.10;;;;;;;10.08;61.29;100798.84;7366058;19;20704;-62
2024/03/08 00:28:44;;;;;;;0.08;0.08;;;;;;;10.23;61.37;100822.91;7358968;19;20037;-62
2024/03/08 00:31:10;;;;;;;0.05;0.05;;;;;;;10.22;61.09;100810.75;7366838;19;20027;-62
2024/03/08 00:33:36;;;;;;;0.10;0.10;;;;;;;10.16;61.25;100798.69;7358670;19;20005;-62
2024/03/08 00:36:02;;;;;;;0.10;0.10;;;;;;;10.21;61.24;100799.47;7364666;19;20033;-63
2024/03/08 00:38:27;;;;;;;0.10;0.10;;;;;;;10.18;61.46;100783.00;7364833;19;20353;-62
2024/03/08 00:40:53;;;;;;;0.10;0.10;;;;;;;10.22;61.45;100789.88;7361508;19;19999;-62
2024/03/08 00:43:18;;;;;;;0.10;0.10;;;;;;;10.22;61.11;100795.09;7365366;19;19995;-62
2024/03/08 00:45:44;;;;;;;0.10;0.10;;;;;;;10.22;61.20;100784.66;7363126;19;20007;-62
2024/03/08 00:48:10;;;;;;;0.10;0.10;;;;;;;10.08;61.38;100762.31;7366484;19;19995;-62
2024/03/08 00:50:36;;;;;;;0.10;0.10;;;;;;;10.22;61.32;100784.66;7365495;19;20864;-62
2024/03/08 00:53:02;;;;;;;0.10;0.10;;;;;;;10.17;61.16;100770.84;7361911;19;20003;-62
2024/03/08 00:55:27;;;;;;;0.10;0.10;;;;;;;10.20;60.93;100770.81;7361761;19;20029;-62
2024/03/08 00:57:53;;;;;;;0.10;0.10;;;;;;;10.19;61.28;100769.94;7359884;19;20015;-62
2024/03/08 01:00:21;;;;;;;0.10;0.10;;;;;;;10.17;61.50;100770.84;7360044;19;20010;-62
2024/03/08 01:02:46;;;;;;;0.10;0.10;;;;;;;10.17;60.81;100770.84;7360227;19;20086;-62
2024/03/08 01:05:11;;;;;;;0.10;0.10;;;;;;;10.14;61.31;100757.00;7363754;19;20032;-62
2024/03/08 01:07:37;;;;;;;0.10;0.10;;;;;;;10.14;61.12;100763.97;7363802;19;20007;-62
2024/03/08 01:10:09;;;;;;;0.10;0.10;;;;;;;10.08;60.98;100744.03;7364148;19;20003;-62
2024/03/08 01:12:35;;;;;;;0.10;0.10;;;;;;;10.12;60.82;100750.91;7365477;19;20011;-63
2024/03/08 01:15:00;;;;;;;0.10;0.10;;;;;;;10.12;61.15;100753.53;7364203;19;20875;-62
2024/03/08 01:17:26;;;;;;;0.10;0.10;;;;;;;10.11;61.02;100741.38;7362371;19;20095;-63
2024/03/08 01:19:53;;;;;;;0.10;0.10;;;;;;;10.09;60.99;100743.16;7363272;19;20002;-62
2024/03/08 01:22:18;;;;;;;0.10;0.10;;;;;;;10.10;61.08;100736.19;7361855;19;20582;-62
2024/03/08 01:24:44;;;;;;;0.10;0.10;;;;;;;10.09;61.08;100737.97;7364978;19;20015;-62
2024/03/08 01:27:09;;;;;;;0.10;0.10;;;;;;;10.08;61.46;100741.44;7365826;19;20026;-62
2024/03/08 01:29:34;;;;;;;0.10;0.10;;;;;;;10.08;61.18;100737.97;7365869;19;20010;-62
2024/03/08 01:32:03;;;;;;;0.10;0.10;;;;;;;9.84;61.42;100700.22;7361907;19;20658;-62
2024/03/08 01:34:28;;;;;;;0.10;0.10;;;;;;;10.07;61.06;100744.06;7337604;19;20022;-63
2024/03/08 01:36:56;;;;;;;0.10;0.10;;;;;;;10.06;61.73;100737.16;7340415;19;20007;-62
2024/03/08 01:39:21;;;;;;;0.10;0.10;;;;;;;10.05;61.58;100741.50;7364758;19;20044;-62
2024/03/08 01:41:47;;;;;;;0.10;0.10;;;;;;;10.05;61.42;100736.28;7365899;19;20002;-62
2024/03/08 01:44:17;;;;;;;0.10;0.10;;;;;;;10.03;61.42;100738.06;7364097;19;20003;-62
2024/03/08 01:46:44;;;;;;;0.10;0.10;;;;;;;10.04;61.51;100734.56;7365057;19;20498;-62
2024/03/08 01:49:11;;;;;;;0.10;0.10;;;;;;;10.03;60.93;100727.63;7365967;19;20203;-62
2024/03/08 01:51:37;;;;;;;0.10;0.10;;;;;;;10.02;60.88;100727.66;7361294;19;20448;-62
2024/03/08 01:54:04;;;;;;;0.00;0.00;;;;;;;9.98;61.11;100724.25;7364106;19;20006;-62
2024/03/08 01:56:31;;;;;;;0.10;0.10;;;;;;;9.93;61.19;100720.00;7359938;19;20006;-62
2024/03/08 01:58:57;;;;;;;0.10;0.10;;;;;;;9.98;61.20;100726.00;7365261;19;20796;-62
2024/03/08 02:01:23;;;;;;;0.10;0.10;;;;;;;9.96;61.01;100720.81;7360791;19;20009;-62
2024/03/08 02:03:49;;;;;;;0.10;0.10;;;;;;;9.95;61.52;100713.88;7362120;19;19998;-62
2024/03/08 02:06:16;;;;;;;0.10;0.10;;;;;;;9.94;61.16;100706.97;7350008;19;20006;-62
2024/03/08 02:08:45;;;;;;;0.10;0.10;;;;;;;9.96;61.45;100713.00;7360175;19;20101;-62
2024/03/08 02:11:11;;;;;;;0.10;0.10;;;;;;;9.95;61.58;100716.50;7365191;19;20032;-62
2024/03/08 02:13:37;;;;;;;0.10;0.10;;;;;;;9.95;61.17;100702.59;7364519;19;19998;-61
2024/03/08 02:16:02;;;;;;;0.10;0.10;;;;;;;9.90;61.44;100697.47;7362910;19;19994;-62
2024/03/08 02:18:29;;;;;;;0.10;0.10;;;;;;;9.94;61.42;100701.75;7364610;19;20006;-62
2024/03/08 02:20:55;;;;;;;0.10;0.10;;;;;;;9.94;61.21;100691.31;7362675;19;20034;-62
2024/03/08 02:23:21;;;;;;;0.10;0.10;;;;;;;9.93;60.84;100691.31;7363572;19;20391;-62
2024/03/08 02:25:47;;;;;;;0.10;0.10;;;;;;;9.92;61.25;100687.84;7357393;19;20021;-62
2024/03/08 02:28:14;;;;;;;0.10;0.10;;;;;;;9.89;60.83;100677.50;7366034;19;20405;-62
2024/03/08 02:30:40;;;;;;;0.10;0.10;;;;;;;9.90;60.56;100676.59;7361889;19;20023;-62
2024/03/08 02:33:06;;;;;;;0.10;0.10;;;;;;;9.85;60.58;100670.63;7361755;19;20003;-62
2024/03/08 02:35:32;;;;;;;0.05;0.05;;;;;;;9.74;60.78;100657.78;7356802;19;20413;-62
2024/03/08 02:37:58;;;;;;;0.10;0.10;;;;;;;9.86;60.74;100677.53;7362261;19;20021;-63
2024/03/08 02:40:23;;;;;;;0.10;0.10;;;;;;;9.85;60.96;100676.69;7354085;19;20006;-62
2024/03/08 02:42:49;;;;;;;0.10;0.10;;;;;;;9.86;60.83;100669.72;7365111;19;20609;-62
2024/03/08 02:45:14;;;;;;;0.05;0.05;;;;;;;9.84;60.73;100663.69;7360787;19;20002;-62
2024/03/08 02:47:40;;;;;;;0.10;0.10;;;;;;;9.85;60.54;100660.19;7367268;19;20007;-62
2024/03/08 02:50:07;;;;;;;0.00;0.00;;;;;;;9.84;60.48;100653.25;7364677;19;20017;-62
2024/03/08 02:52:34;;;;;;;0.10;0.10;;;;;;;9.48;60.84;100590.53;7362798;19;20105;-62
2024/03/08 02:54:59;;;;;;;0.10;0.10;;;;;;;9.83;60.47;100646.31;7360152;19;20561;-62
2024/03/08 02:57:24;;;;;;;0.10;0.10;;;;;;;9.82;60.82;100635.00;7363123;19;20003;-62
2024/03/08 02:59:50;;;;;;;0.10;0.10;;;;;;;9.82;60.91;100629.78;7362096;19;20018;-62
2024/03/08 03:02:16;;;;;;;0.10;0.10;;;;;;;9.81;60.98;100622.88;7365065;19;20039;-62
2024/03/08 03:04:43;;;;;;;0.00;0.00;;;;;;;9.80;60.43;100620.31;7365554;19;20400;-62
2024/03/08 03:07:08;;;;;;;0.05;0.05;;;;;;;9.71;60.87;100607.44;7361158;19;20074;-62
2024/03/08 03:09:33;;;;;;;0.10;0.10;;;;;;;9.77;61.06;100610.78;7365097;19;20117;-62
2024/03/08 03:11:59;;;;;;;0.10;0.10;;;;;;;9.61;61.13;100573.75;7364518;19;20005;-62
2024/03/08 03:14:26;;;;;;;0.10;0.10;;;;;;;9.77;60.77;100599.50;7364254;19;20010;-62
2024/03/08 03:16:52;;;;;;;0.10;0.10;;;;;;;9.73;60.58;100587.41;7363369;19;20049;-62
2024/03/08 03:19:17;;;;;;;0.10;0.10;;;;;;;9.74;60.84;100584.78;7364350;19;20003;-62
2024/03/08 03:21:43;;;;;;;0.08;0.08;;;;;;;9.74;60.42;100584.78;7359993;19;20665;-62
2024/03/08 03:24:12;;;;;;;0.10;0.10;;;;;;;9.73;60.59;100571.75;7364574;19;20008;-62
2024/03/08 03:26:41;;;;;;;0.10;0.10;;;;;;;9.71;60.78;100578.75;7357338;19;20047;-62
2024/03/08 03:29:08;;;;;;;0.10;0.10;;;;;;;9.72;60.89;100580.47;7367822;19;19998;-61
2024/03/08 03:31:34;;;;;;;0.10;0.10;;;;;;;9.65;60.97;100551.06;7372087;19;20018;-62
2024/03/08 03:34:03;;;;;;;0.10;0.10;;;;;;;9.71;60.81;100563.13;7367698;19;20213;-62
2024/03/08 03:36:32;;;;;;;0.10;0.10;;;;;;;9.63;60.76;100545.03;7372342;19;20013;-62
2024/03/08 03:39:10;;;;;;;0.10;0.10;;;;;;;9.68;61.27;100556.25;7367693;19;20003;-62
2024/03/08 03:41:36;;;;;;;0.10;0.10;;;;;;;9.66;60.99;100547.56;7367830;19;20034;-62
2024/03/08 03:44:01;;;;;;;0.10;0.10;;;;;;;9.66;60.95;100546.72;7369634;19;20507;-62
2024/03/08 03:46:27;;;;;;;0.10;0.10;;;;;;;9.67;60.89;100545.81;7367972;19;20025;-62
2024/03/08 03:48:56;;;;;;;0.17;0.17;;;;;;;9.67;61.14;100543.22;7371754;19;20030;-62
2024/03/08 03:51:21;;;;;;;0.10;0.10;;;;;;;9.64;60.93;100538.94;7367250;19;20614;-62
2024/03/08 03:53:46;;;;;;;0.10;0.10;;;;;;;9.64;60.95;100533.72;7365697;19;20434;-61
2024/03/08 03:56:12;;;;;;;0.10;0.10;;;;;;;9.64;60.95;100536.34;7370648;19;20006;-61
2024/03/08 03:58:37;;;;;;;0.10;0.10;;;;;;;9.64;61.13;100538.09;7364839;19;20021;-62
2024/03/08 04:01:04;;;;;;;0.10;0.10;;;;;;;9.62;60.81;100528.53;7368716;19;20015;-62
2024/03/08 04:03:30;;;;;;;0.10;0.10;;;;;;;9.60;60.82;100535.53;7371042;19;20011;-62
2024/03/08 04:05:55;;;;;;;0.10;0.10;;;;;;;9.59;60.81;100522.53;7368339;19;20350;-62
2024/03/08 04:08:21;;;;;;;0.10;0.10;;;;;;;9.56;60.82;100520.84;7367946;19;20456;-62
2024/03/08 04:10:46;;;;;;;0.10;0.10;;;;;;;9.55;60.76;100515.66;7371696;19;20002;-62
2024/03/08 04:13:12;;;;;;;0.10;0.10;;;;;;;9.53;61.12;100520.91;7368791;19;20003;-65
2024/03/08 04:15:37;;;;;;;0.10;0.10;;;;;;;9.53;60.91;100514.81;7368722;19;20023;-62
2024/03/08 04:18:03;;;;;;;0.10;0.10;;;;;;;9.50;61.21;100502.72;7345009;19;20011;-61
2024/03/08 04:20:30;;;;;;;0.10;0.10;;;;;;;9.49;61.57;100508.84;7369441;19;20585;-62
2024/03/08 04:22:56;;;;;;;0.10;0.10;;;;;;;9.47;61.83;100502.78;7371545;19;20007;-62
2024/03/08 04:25:21;;;;;;;0.10;0.10;;;;;;;9.46;61.56;100506.28;7371295;19;20039;-62
2024/03/08 04:27:48;;;;;;;0.10;0.10;;;;;;;9.45;61.65;100501.97;7370685;19;20021;-62
2024/03/08 04:30:14;;;;;;;0.10;0.10;;;;;;;9.36;61.09;100489.13;7367402;19;19998;-62
2024/03/08 04:32:41;;;;;;;0.10;0.10;;;;;;;9.43;61.16;100500.28;7369307;19;20021;-62
2024/03/08 04:35:07;;;;;;;0.10;0.10;;;;;;;9.42;61.56;100514.19;7369370;19;20002;-62
2024/03/08 04:37:34;;;;;;;0.10;0.10;;;;;;;9.34;61.16;100498.75;7369817;19;20054;-62
2024/03/08 04:39:59;;;;;;;0.10;0.10;;;;;;;9.38;61.58;100503.00;7362624;19;20021;-62
2024/03/08 04:42:26;;;;;;;0.10;0.10;;;;;;;9.38;61.44;100502.13;7371561;19;20002;-62
2024/03/08 04:44:53;;;;;;;0.10;0.10;;;;;;;9.35;61.11;100492.63;7370252;19;20028;-62
2024/03/08 04:47:19;;;;;;;0.08;0.08;;;;;;;9.36;61.22;100489.13;7367757;19;20620;-62
2024/03/08 04:49:44;;;;;;;0.10;0.10;;;;;;;9.22;61.16;100459.88;7366307;19;20035;-62
2024/03/08 04:52:10;;;;;;;0.10;0.10;;;;;;;9.21;61.17;100463.38;7371878;19;20414;-62
2024/03/08 04:54:35;;;;;;;0.10;0.10;;;;;;;9.32;61.24;100484.88;7369185;19;20018;-62
2024/03/08 04:57:01;;;;;;;0.10;0.10;;;;;;;9.31;60.87;100475.34;7348205;19;19994;-62
2024/03/08 04:59:27;;;;;;;0.05;0.05;;;;;;;9.27;61.56;100473.69;7370202;19;20007;-62
2024/03/08 05:01:53;;;;;;;0.10;0.10;;;;;;;9.28;61.42;100481.50;7366247;19;20010;-62
2024/03/08 05:04:18;;;;;;;0.10;0.10;;;;;;;9.29;61.80;100471.91;7368235;19;20021;-62
2024/03/08 05:06:43;;;;;;;0.10;0.10;;;;;;;9.27;61.62;100466.72;7369054;19;20003;-62
2024/03/08 05:09:15;;;;;;;0.10;0.10;;;;;;;9.27;61.82;100458.91;7366355;19;20003;-62
2024/03/08 05:11:43;;;;;;;0.10;0.10;;;;;;;9.19;61.66;100449.56;7370616;19;20006;-62
2024/03/08 05:14:09;;;;;;;0.10;0.10;;;;;;;9.19;61.86;100446.94;7364191;19;20011;-62
2024/03/08 05:16:35;;;;;;;0.10;0.10;;;;;;;9.26;61.91;100458.94;7369372;19;20505;-62
2024/03/08 05:19:01;;;;;;;0.10;0.10;;;;;;;9.26;62.08;100457.19;7366793;19;20373;-62
2024/03/08 05:21:26;;;;;;;0.10;0.10;;;;;;;9.20;61.95;100446.91;7368615;19;20026;-62
2024/03/08 05:23:52;;;;;;;0.10;0.10;;;;;;;9.26;62.02;100451.13;7365792;19;20015;-62
2024/03/08 05:26:17;;;;;;;0.10;0.10;;;;;;;9.25;61.86;100449.41;7370315;19;20022;-62
2024/03/08 05:28:42;;;;;;;0.10;0.10;;;;;;;9.24;62.15;100448.56;7363062;19;19999;-62
2024/03/08 05:31:08;;;;;;;0.10;0.10;;;;;;;9.17;62.12;100431.31;7367869;19;20030;-62
2024/03/08 05:33:36;;;;;;;0.10;0.10;;;;;;;9.12;62.35;100419.28;7361549;19;20557;-62
2024/03/08 05:36:02;;;;;;;0.10;0.10;;;;;;;9.19;62.04;100431.31;7368271;19;20007;-62
2024/03/08 05:38:28;;;;;;;0.10;0.10;;;;;;;9.19;62.33;100439.13;7364997;19;20049;-62
2024/03/08 05:40:54;;;;;;;0.05;0.05;;;;;;;9.05;61.80;100415.97;7367625;19;20486;-62
2024/03/08 05:43:20;;;;;;;0.10;0.10;;;;;;;9.14;62.40;100425.34;7364232;19;20022;-62
2024/03/08 05:45:46;;;;;;;0.10;0.10;;;;;;;9.13;62.10;100426.25;7364475;19;19998;-62
2024/03/08 05:48:14;;;;;;;0.10;0.10;;;;;;;9.08;62.57;100419.38;7368212;19;20008;-62
2024/03/08 05:50:39;;;;;;;0.10;0.10;;;;;;;9.05;62.42;100422.03;7368805;19;20034;-62
2024/03/08 05:53:07;;;;;;;0.10;0.10;;;;;;;9.00;62.37;100418.66;7366451;19;20002;-62
2024/03/08 05:55:36;;;;;;;0.10;0.10;;;;;;;8.97;62.39;100426.56;7363820;19;20028;-62
2024/03/08 05:58:02;;;;;;;0.10;0.10;;;;;;;8.92;62.37;100420.59;7367610;19;20010;-62
2024/03/08 06:00:27;;;;;;;0.00;0.00;;;;;;;8.69;62.25;100387.19;7366587;19;20009;-62
2024/03/08 06:02:53;;;;;;;0.10;0.10;;;;;;;8.82;62.77;100419.06;7364071;19;20017;-62
2024/03/08 06:05:18;;;;;;;0.05;0.05;;;;;;;8.77;62.96;100410.47;7366683;19;20011;-62
2024/03/08 06:07:44;;;;;;;0.10;0.10;;;;;;;8.73;63.11;100414.88;7365636;19;20367;-62
2024/03/08 06:10:10;;;;;;;0.10;0.10;;;;;;;8.63;63.22;100396.88;7366632;19;20552;-62
2024/03/08 06:12:41;;;;;;;0.00;0.00;;;;;;;8.65;63.33;100405.50;7366461;19;20852;-62
2024/03/08 06:15:10;;;;;;;0.10;0.10;;;;;;;8.61;63.31;100409.03;7368404;19;20003;-63
2024/03/08 06:17:38;;;;;;;0.05;0.05;;;;;;;8.56;63.35;100396.97;7369034;19;20017;-62
2024/03/08 06:20:10;;;;;;;0.10;0.10;;;;;;;8.57;63.38;100393.50;7367021;19;20014;-62
2024/03/08 06:22:41;;;;;;;0.08;0.08;;;;;;;8.56;63.31;100389.16;7363671;19;20010;-62
2024/03/08 06:25:08;;;;;;;0.10;0.10;;;;;;;8.55;63.44;100387.47;7362424;19;20058;-62
2024/03/08 06:27:33;;;;;;;0.10;0.10;;;;;;;8.55;63.36;100390.06;7362598;19;20010;-62
2024/03/08 06:30:00;;;;;;;0.10;0.10;;;;;;;8.54;63.78;100388.34;7362722;19;20034;-62
2024/03/08 06:32:25;;;;;;;0.10;0.10;;;;;;;8.55;63.46;100384.00;7361094;19;20026;-61
2024/03/08 06:34:51;;;;;;;0.10;0.10;;;;;;;8.54;63.36;100383.13;7360587;19;20010;-61
2024/03/08 06:37:21;;;;;;;0.00;0.00;;;;;;;8.54;63.55;100372.72;7366366;19;20654;-62
2024/03/08 06:39:48;;;;;;;0.10;0.10;;;;;;;8.53;63.07;100371.03;7366837;19;20246;-63
2024/03/08 06:42:13;;;;;;;0.10;0.10;;;;;;;8.51;63.37;100377.97;7365382;19;20007;-62
2024/03/08 06:44:45;;;;;;;0.10;0.10;;;;;;;8.47;63.15;100376.34;7364353;19;20387;-62
2024/03/08 06:47:11;;;;;;;0.10;0.10;;;;;;;8.45;63.43;100372.06;7368448;19;20510;-62
2024/03/08 06:49:36;;;;;;;0.10;0.10;;;;;;;8.40;63.04;100369.53;7367165;19;20007;-62
2024/03/08 06:52:01;;;;;;;0.10;0.10;;;;;;;8.41;63.07;100368.63;7365830;19;19999;-62
2024/03/08 06:54:27;;;;;;;0.10;0.10;;;;;;;8.39;63.29;100367.81;7363440;19;20085;-62
2024/03/08 06:56:52;;;;;;;0.10;0.10;;;;;;;8.37;63.49;100374.81;7365660;19;20002;-62
2024/03/08 06:59:17;;;;;;;0.10;0.10;;;;;;;8.33;63.58;100378.31;7357991;19;20015;-63
2024/03/08 07:01:43;;;;;;;0.08;0.08;;;;;;;8.31;63.81;100370.56;7365742;19;20010;-62
2024/03/08 07:04:08;;;;;;;0.10;0.10;;;;;;;8.28;63.79;100368.00;7369103;19;20038;-62
2024/03/08 07:06:34;;;;;;;0.10;0.10;;;;;;;8.28;63.60;100367.16;7371306;19;20013;-62
2024/03/08 07:09:00;;;;;;;0.10;0.10;;;;;;;8.25;64.16;100362.84;7374302;19;19991;-62
2024/03/08 07:11:25;;;;;;;0.10;0.10;;;;;;;8.25;63.58;100369.78;7372479;19;20078;-62
2024/03/08 07:13:50;;;;;;;0.10;0.10;;;;;;;8.21;63.75;100352.53;7371609;19;20014;-62
2024/03/08 07:16:16;;;;;;;0.10;0.10;;;;;;;8.21;64.14;100363.81;7373329;19;20018;-62
2024/03/08 07:18:43;;;;;;;0.10;0.10;;;;;;;8.17;63.70;100358.69;7371494;19;20006;-62
2024/03/08 07:21:10;;;;;;;0.03;0.03;;;;;;;8.16;64.22;100360.44;7364775;19;20003;-62
2024/03/08 07:24:02;;;;;;;0.10;0.10;;;;;;;8.12;63.89;100363.97;7369377;19;20045;-62
2024/03/08 07:26:28;;;;;;;0.00;0.00;;;;;;;8.12;64.11;100368.31;7371379;19;19998;-62
2024/03/08 07:28:54;;;;;;;0.00;0.00;;;;;;;8.10;64.48;100365.72;7371224;19;20355;-62
2024/03/08 07:33:53;;;;;;;0.10;0.10;;;;;;;8.07;64.54;100356.25;7370159;19;20074;-62
2024/03/08 07:36:18;;;;;;;0.10;0.10;;;;;;;8.06;64.60;100351.94;7369480;19;20017;-62
2024/03/08 07:38:46;;;;;;;0.10;0.10;;;;;;;7.86;64.39;100330.63;7371132;19;20558;-62
2024/03/08 07:41:12;;;;;;;;;;;;;;;8.07;63.58;100351.03;7368305;19;20616;-62
2024/03/08 07:43:38;;;;;;;0.08;0.08;;;;;;;8.06;64.39;100353.69;7371676;19;20276;-62
2024/03/08 07:46:03;;;;;;;0.10;0.10;;;;;;;8.06;64.62;100359.75;7369251;19;20010;-61
2024/03/08 07:48:30;;;;;;;0.10;0.10;;;;;;;7.93;64.64;100331.38;7364291;19;19998;-62
2024/03/08 07:50:56;;;;;;;0.10;0.10;;;;;;;8.07;64.38;100351.03;7371455;19;20010;-62
2024/03/08 07:53:22;;;;;;;0.10;0.10;;;;;;;8.10;64.86;100352.72;7367194;19;20022;-62
2024/03/08 07:55:48;;;;;;;0.10;0.10;;;;;;;8.13;64.92;100351.81;7373204;19;20430;-62
2024/03/08 07:58:13;;;;;;;0.10;0.10;;;;;;;8.07;64.93;100342.38;7368924;19;20020;-62
2024/03/08 08:00:39;;;;;;;0.10;0.10;;;;;;;8.09;64.74;100329.34;7365705;19;20007;-62
2024/03/08 08:03:05;;;;;;;0.10;0.10;;;;;;;8.21;64.68;100344.72;7369677;19;20010;-62
2024/03/08 08:05:35;;;;;;;0.10;0.10;;;;;;;8.22;64.93;100338.66;7366883;19;20077;-62
2024/03/08 08:08:02;;;;;;;0.10;0.10;;;;;;;8.37;64.87;100351.41;7368416;19;20445;-62
2024/03/08 08:10:28;;;;;;;0.10;0.10;;;;;;;8.39;65.06;100336.59;7370262;19;19998;-62
2024/03/08 08:12:54;;;;;;;0.10;0.10;;;;;;;8.44;65.12;100324.38;7370321;19;20541;-62
2024/03/08 08:15:19;;;;;;;0.05;0.05;;;;;;;8.37;64.74;100317.56;7369928;19;20003;-62
2024/03/08 08:17:45;;;;;;;0.00;0.00;;;;;;;8.41;64.89;100305.34;7365026;19;20010;-62
2024/03/08 08:20:13;;;;;;;0.10;0.10;;;;;;;8.62;64.80;100332.66;7360759;19;20003;-62
2024/03/08 08:22:42;;;;;;;;;;;;;;;8.70;63.71;100330.78;7368153;19;20019;-62
2024/03/08 08:25:08;;;;;;;0.10;0.10;;;;;;;8.72;64.35;100339.44;7363781;19;19915;-62
2024/03/08 08:27:36;;;;;;;0.10;0.10;;;;;;;8.74;64.37;100325.47;7364682;19;20543;-62
2024/03/08 08:30:02;;;;;;;0.10;0.10;;;;;;;8.77;64.52;100324.56;7365183;19;20003;-63
2024/03/08 08:32:27;;;;;;;0.10;0.10;;;;;;;8.79;64.35;100317.56;7360060;19;20023;-62
2024/03/08 08:34:53;;;;;;;0.10;0.10;;;;;;;8.83;64.17;100316.63;7367535;19;20025;-62
2024/03/08 08:37:18;;;;;;;0.10;0.10;;;;;;;8.87;64.34;100314.78;7366054;19;20011;-61
2024/03/08 08:39:44;;;;;;;0.10;0.10;;;;;;;8.89;64.22;100313.88;7368325;19;20025;-62
2024/03/08 08:42:09;;;;;;;0.10;0.10;;;;;;;8.93;64.24;100315.53;7367470;19;19994;-62
2024/03/08 08:44:35;;;;;;;0.10;0.10;;;;;;;8.94;64.15;100304.22;7369149;19;20018;-62
2024/03/08 08:47:02;;;;;;;0.10;0.10;;;;;;;9.01;64.01;100311.00;7369374;19;20461;-62
2024/03/08 08:49:28;;;;;;;;;;;;;;;9.10;63.87;100309.94;7370765;19;20486;-62
2024/03/08 08:51:54;;;;;;;0.10;0.10;;;;;;;9.11;64.05;100316.84;7368641;19;19918;-62
2024/03/08 08:54:20;;;;;;;0.10;0.10;;;;;;;9.14;64.02;100302.91;7366321;19;20010;-62
2024/03/08 08:56:47;;;;;;;0.10;0.10;;;;;;;9.18;64.13;100305.41;7367889;19;20380;-62
2024/03/08 08:59:13;;;;;;;0.10;0.10;;;;;;;9.22;63.88;100300.97;7366052;19;20674;-62
2024/03/08 09:01:40;;;;;;;0.10;0.10;;;;;;;9.26;64.01;100292.19;7366947;19;20002;-62
2024/03/08 09:04:06;;;;;;;0.00;0.00;;;;;;;9.29;63.44;100292.97;7368555;19;20894;-62
2024/03/08 09:06:31;;;;;;;0.10;0.10;;;;;;;9.32;63.67;100294.66;7368392;19;20070;-62
2024/03/08 09:08:57;;;;;;;0.10;0.10;;;;;;;9.34;63.29;100293.72;7368429;19;20018;-62
2024/03/08 09:11:24;;;;;;;0.10;0.10;;;;;;;9.35;63.52;100284.16;7367986;19;20006;-62
2024/03/08 09:13:49;;;;;;;0.10;0.10;;;;;;;9.41;63.99;100289.22;7368767;19;20014;-62
2024/03/08 09:16:15;;;;;;;0.03;0.03;;;;;;;9.42;63.74;100274.44;7366456;19;20348;-62
2024/03/08 09:18:41;;;;;;;0.10;0.10;;;;;;;9.47;63.72;100276.03;7366677;19;20052;-63
2024/03/08 09:21:09;;;;;;;0.10;0.10;;;;;;;9.53;63.60;100273.28;7361063;19;20422;-62
2024/03/08 09:23:35;;;;;;;0.10;0.10;;;;;;;9.58;63.63;100276.63;7360887;19;20014;-62
2024/03/08 09:26:02;;;;;;;0.10;0.10;;;;;;;9.61;63.66;100270.47;7365160;19;20062;-62
2024/03/08 09:28:28;;;;;;;0.10;0.10;;;;;;;9.66;63.49;100273.81;7366085;19;20010;-62
2024/03/08 09:30:54;;;;;;;0.10;0.10;;;;;;;9.71;63.35;100277.16;7368139;19;20002;-63
2024/03/08 09:33:20;;;;;;;0.10;0.10;;;;;;;9.71;63.32;100268.50;7358783;19;20018;-62
2024/03/08 09:35:46;;;;;;;0.10;0.10;;;;;;;9.79;62.85;100279.59;7367853;19;19999;-62
2024/03/08 09:38:13;;;;;;;0.10;0.10;;;;;;;9.66;62.75;100236.47;7363683;19;20142;-62
2024/03/08 09:40:41;;;;;;;0.10;0.10;;;;;;;9.84;63.34;100257.69;7364312;19;20391;-62
2024/03/08 09:43:06;;;;;;;0.10;0.10;;;;;;;9.86;63.22;100257.66;7369863;19;20029;-63
2024/03/08 09:45:36;;;;;;;0.10;0.10;;;;;;;9.85;62.60;100237.69;7342752;19;20474;-62
2024/03/08 09:48:01;;;;;;;0.10;0.10;;;;;;;9.78;62.88;100226.59;7366279;19;20011;-62
2024/03/08 09:50:29;;;;;;;0.10;0.10;;;;;;;9.94;62.69;100247.88;7367188;19;20019;-62
2024/03/08 09:52:56;;;;;;;;;;;;;;;9.99;62.58;100251.22;7359879;19;20022;-63
2024/03/08 09:55:22;;;;;;;;;;;;;;;10.02;62.74;100243.28;7369106;19;19922;-62
2024/03/08 10:00:35;;;;;;;0.10;0.10;;;;;;;9.89;62.37;100208.03;7366860;19;20066;-62
2024/03/08 10:03:01;;;;;;;0.10;0.10;;;;;;;10.07;62.12;100223.16;7365588;19;20513;-62
2024/03/08 10:05:27;;;;;;;0.10;0.10;;;;;;;10.10;62.40;100217.84;7366971;19;20002;-62
2024/03/08 10:07:53;;;;;;;0.10;0.10;;;;;;;10.16;62.03;100210.75;7367248;19;20081;-62
2024/03/08 10:10:18;;;;;;;0.10;0.10;;;;;;;10.22;62.10;100210.56;7361883;19;20017;-62
2024/03/08 10:12:45;;;;;;;0.10;0.10;;;;;;;10.28;62.45;100210.41;7366989;19;20030;-63
2024/03/08 10:15:12;;;;;;;0.10;0.10;;;;;;;10.32;62.24;100202.44;7365644;19;20258;-62
2024/03/08 10:17:39;;;;;;;0.10;0.10;;;;;;;10.39;62.45;100197.91;7368488;19;20714;-62
2024/03/08 10:20:14;;;;;;;0.10;0.10;;;;;;;10.55;62.30;100198.31;7363449;19;20017;-62
2024/03/08 10:22:43;;;;;;;0.10;0.10;;;;;;;10.63;61.71;100191.94;7366891;19;20021;-63
2024/03/08 10:25:11;;;;;;;0.10;0.10;;;;;;;10.75;61.96;100208.16;7364752;19;20039;-63
2024/03/08 10:27:36;;;;;;;0.10;0.10;;;;;;;10.88;61.47;100201.63;7365825;19;20023;-63
2024/03/08 10:30:02;;;;;;;0.10;0.10;;;;;;;10.98;61.04;100187.34;7365070;19;20573;-63
2024/03/08 10:32:28;;;;;;;0.10;0.10;;;;;;;11.07;60.15;100192.28;7362101;19;20015;-63
2024/03/08 10:34:53;;;;;;;0.10;0.10;;;;;;;11.17;60.16;100185.84;7366700;19;20063;-62
2024/03/08 10:37:22;;;;;;;0.10;0.10;;;;;;;11.25;60.12;100182.97;7364252;19;20062;-62
2024/03/08 10:40:10;;;;;;;0.10;0.10;;;;;;;11.34;60.10;100184.41;7364510;19;20013;-63
2024/03/08 10:42:40;;;;;;;0.10;0.10;;;;;;;11.35;60.42;100175.66;7364559;19;20600;-63
2024/03/08 10:45:21;;;;;;;0.10;0.10;;;;;;;11.54;59.96;100176.75;7362817;19;20002;-63
2024/03/08 10:47:49;;;;;;;0.10;0.10;;;;;;;11.36;59.54;100136.41;7366716;19;20457;-62
2024/03/08 10:50:22;;;;;;;0.10;0.10;;;;;;;11.69;59.60;100173.56;7367679;19;20882;-63
2024/03/08 10:52:52;;;;;;;0.10;0.10;;;;;;;11.75;59.73;100174.25;7366615;19;20003;-62
2024/03/08 10:55:18;;;;;;;0.10;0.10;;;;;;;11.75;59.41;100174.25;7367108;19;20049;-62
2024/03/08 10:57:43;;;;;;;0.10;0.10;;;;;;;11.78;59.13;100179.41;7361246;19;20010;-63
2024/03/08 11:00:12;;;;;;;0.10;0.10;;;;;;;11.82;58.93;100170.56;7363904;19;20018;-62
2024/03/08 11:02:37;;;;;;;0.20;0.20;;;;;;;11.83;58.75;100173.13;7366387;19;20017;-64
2024/03/08 11:05:03;;;;;;;0.10;0.10;;;;;;;11.88;59.08;100183.44;7363344;19;20066;-62
2024/03/08 11:07:35;;;;;;;0.10;0.10;;;;;;;11.92;58.42;100166.72;7364496;19;20426;-62
2024/03/08 11:10:04;;;;;;;0.10;0.10;;;;;;;11.92;58.57;100172.78;7364361;19;20926;-62
2024/03/08 11:12:36;;;;;;;0.10;0.10;;;;;;;11.95;58.54;100171.81;7363837;19;19990;-63
2024/03/08 11:15:11;;;;;;;0.10;0.10;;;;;;;11.99;58.58;100167.31;7365182;19;20014;-62
2024/03/08 11:17:37;;;;;;;0.10;0.10;;;;;;;11.97;58.30;100163.94;7366160;19;20006;-63
2024/03/08 11:20:15;;;;;;;0.10;0.10;;;;;;;11.99;58.21;100160.34;7362794;19;20010;-62
2024/03/08 11:22:45;;;;;;;0.10;0.10;;;;;;;11.94;57.39;100149.19;7364328;19;20350;-62
2024/03/08 11:25:31;;;;;;;0.10;0.10;;;;;;;11.94;58.71;100151.81;7365653;19;20845;-62
2024/03/08 11:28:26;;;;;;;0.10;0.10;;;;;;;11.89;58.63;100146.72;7364491;19;20070;-62
2024/03/08 11:30:58;;;;;;;0.10;0.10;;;;;;;11.83;57.70;100146.13;7358707;19;20094;-62
2024/03/08 11:33:30;;;;;;;0.10;0.10;;;;;;;11.75;57.44;100153.34;7360731;19;20018;-62
2024/03/08 11:36:11;;;;;;;0.10;0.10;;;;;;;11.70;57.64;100153.50;7360263;19;20014;-62